createdAt,value
2024-02-29T00:02:22.590Z,51.75
2024-02-29T00:04:49.765Z,51.65
2024-02-29T00:07:18.318Z,51.63
2024-02-29T00:09:45.517Z,51.72
2024-02-29T00:12:12.736Z,51.67
2024-02-29T00:14:40.047Z,51.74
2024-02-29T00:17:07.262Z,51.67
2024-02-29T00:19:34.546Z,51.76
2024-02-29T00:22:01.765Z,51.92
2024-02-29T00:24:30.338Z,51.88
2024-02-29T00:26:57.542Z,51.79
2024-02-29T00:29:24.729Z,51.85
2024-02-29T00:31:52.004Z,51.76
2024-02-29T00:34:19.283Z,51.99
2024-02-29T00:36:46.550Z,51.73
2024-02-29T00:39:15.339Z,51.90
2024-02-29T00:41:44.215Z,51.72
2024-02-29T00:44:11.412Z,51.65
2024-02-29T00:46:38.617Z,51.83
2024-02-29T00:49:06.171Z,51.78
2024-02-29T00:51:33.721Z,51.53
2024-02-29T00:54:00.879Z,51.64
2024-02-29T00:56:28.090Z,51.63
2024-02-29T00:58:56.633Z,51.58
2024-02-29T01:01:23.960Z,51.80
2024-02-29T01:03:51.230Z,51.70
2024-02-29T01:06:18.565Z,51.74
2024-02-29T01:08:45.735Z,51.89
2024-02-29T01:11:13.159Z,51.72
2024-02-29T01:13:40.377Z,51.82
2024-02-29T01:16:08.987Z,51.80
2024-02-29T01:18:36.248Z,51.98
2024-02-29T01:21:03.727Z,52.10
2024-02-29T01:23:30.899Z,51.96
2024-02-29T01:25:58.066Z,52.13
2024-02-29T01:28:25.243Z,52.07
2024-02-29T01:30:52.422Z,52.10
2024-02-29T01:33:20.997Z,51.83
2024-02-29T01:35:48.241Z,52.09
2024-02-29T01:38:15.430Z,51.94
2024-02-29T01:40:45.494Z,51.76
2024-02-29T01:43:12.821Z,51.96
2024-02-29T01:45:40.091Z,51.78
2024-02-29T01:48:09.158Z,51.81
2024-02-29T01:50:39.325Z,51.98
2024-02-29T01:53:06.784Z,51.85
2024-02-29T01:55:34.007Z,51.89
2024-02-29T01:58:02.395Z,51.81
2024-02-29T02:00:29.601Z,51.80
2024-02-29T02:03:17.375Z,51.96
2024-02-29T02:05:46.169Z,51.80
2024-02-29T02:08:14.265Z,51.97
2024-02-29T02:10:41.424Z,52.04
2024-02-29T02:13:08.584Z,52.06
2024-02-29T02:15:35.908Z,51.98
2024-02-29T02:18:03.167Z,52.01
2024-02-29T02:20:31.680Z,51.95
2024-02-29T02:22:58.867Z,52.08
2024-02-29T02:25:26.063Z,52.41
2024-02-29T02:27:53.279Z,52.24
2024-02-29T02:30:20.430Z,51.98
2024-02-29T02:32:47.693Z,51.97
2024-02-29T02:35:14.885Z,51.98
2024-02-29T02:37:43.454Z,51.93
2024-02-29T02:40:11.446Z,51.93
2024-02-29T02:42:38.810Z,52.15
2024-02-29T02:45:07.038Z,52.02
2024-02-29T02:47:34.285Z,51.89
2024-02-29T02:50:01.625Z,52.13
2024-02-29T02:52:28.782Z,52.06
2024-02-29T02:54:57.331Z,52.04
2024-02-29T02:57:24.512Z,51.97
2024-02-29T02:59:51.637Z,52.15
2024-02-29T03:02:18.915Z,52.15
2024-02-29T03:04:46.124Z,52.10
2024-02-29T03:07:13.332Z,52.18
2024-02-29T03:09:40.723Z,52.29
2024-02-29T03:12:10.040Z,52.22
2024-02-29T03:14:37.181Z,52.09
2024-02-29T03:17:04.364Z,52.19
2024-02-29T03:19:31.592Z,52.31
2024-02-29T03:21:58.776Z,52.17
2024-02-29T03:24:26.017Z,52.20
2024-02-29T03:26:53.133Z,52.24
2024-02-29T03:29:22.083Z,52.05
2024-02-29T03:31:49.293Z,51.80
2024-02-29T03:34:16.845Z,51.75
2024-02-29T03:36:44.170Z,51.16
2024-02-29T03:39:11.384Z,50.81
2024-02-29T03:41:38.540Z,50.41
2024-02-29T03:44:05.817Z,50.24
2024-02-29T03:46:34.390Z,50.21
2024-02-29T03:49:01.597Z,50.11
2024-02-29T03:51:28.795Z,50.25
2024-02-29T03:53:55.973Z,50.46
2024-02-29T03:56:23.323Z,50.40
2024-02-29T03:58:50.500Z,50.36
2024-02-29T04:01:17.853Z,50.62
2024-02-29T04:03:46.417Z,50.64
2024-02-29T04:06:13.602Z,50.66
2024-02-29T04:08:40.849Z,50.93
2024-02-29T04:11:08.218Z,50.91
2024-02-29T04:13:35.371Z,51.15
2024-02-29T04:16:02.622Z,50.98
2024-02-29T04:18:29.830Z,50.97
2024-02-29T04:20:58.381Z,51.07
2024-02-29T04:23:25.586Z,51.03
2024-02-29T04:25:52.701Z,50.92
2024-02-29T04:28:19.910Z,50.86
2024-02-29T04:30:47.151Z,51.03
2024-02-29T04:33:14.454Z,51.24
2024-02-29T04:35:41.665Z,51.25
2024-02-29T04:38:10.183Z,51.61
2024-02-29T04:40:37.350Z,51.73
2024-02-29T04:43:04.936Z,51.45
2024-02-29T04:45:32.185Z,55.31
2024-02-29T04:47:59.397Z,61.17
2024-02-29T04:50:26.582Z,58.37
2024-02-29T04:52:53.776Z,55.58
2024-02-29T04:55:22.288Z,56.04
2024-02-29T04:57:49.506Z,54.77
2024-02-29T05:00:17.627Z,53.98
2024-02-29T05:02:44.776Z,54.13
2024-02-29T05:05:12.978Z,54.02
2024-02-29T05:07:40.317Z,53.95
2024-02-29T05:10:08.654Z,53.94
2024-02-29T05:12:37.458Z,53.95
2024-02-29T05:15:05.577Z,53.77
2024-02-29T05:17:32.765Z,53.54
2024-02-29T05:19:59.946Z,53.66
2024-02-29T05:22:27.181Z,53.61
2024-02-29T05:24:54.403Z,53.38
2024-02-29T05:27:21.614Z,53.25
2024-02-29T05:29:50.588Z,53.34
2024-02-29T05:32:18.805Z,53.20
2024-02-29T05:34:46.428Z,53.09
2024-02-29T05:37:13.800Z,53.23
2024-02-29T05:39:41.962Z,53.11
2024-02-29T05:42:09.192Z,53.07
2024-02-29T05:44:36.373Z,53.01
2024-02-29T05:47:05.051Z,52.98
2024-02-29T05:49:32.235Z,53.03
2024-02-29T05:51:59.585Z,52.87
2024-02-29T05:54:26.836Z,53.04
2024-02-29T05:56:54.927Z,52.96
2024-02-29T05:59:22.172Z,53.03
2024-02-29T06:01:49.554Z,53.13
2024-02-29T06:04:18.229Z,53.04
2024-02-29T06:06:45.552Z,53.16
2024-02-29T06:09:12.729Z,52.84
2024-02-29T06:11:39.905Z,52.85
2024-02-29T06:14:07.156Z,52.95
2024-02-29T06:16:34.407Z,52.93
2024-02-29T06:19:01.764Z,52.78
2024-02-29T06:21:30.306Z,52.61
2024-02-29T06:23:57.423Z,52.83
2024-02-29T06:26:24.590Z,52.58
2024-02-29T06:28:51.779Z,52.73
2024-02-29T06:31:19.320Z,52.64
2024-02-29T06:33:46.552Z,52.59
2024-02-29T06:36:13.814Z,52.68
2024-02-29T06:38:42.395Z,52.64
2024-02-29T06:41:10.185Z,52.48
2024-02-29T06:43:37.409Z,52.55
2024-02-29T06:46:04.914Z,52.71
2024-02-29T06:48:32.309Z,52.57
2024-02-29T06:50:59.510Z,52.59
2024-02-29T06:53:26.666Z,52.63
2024-02-29T06:55:55.211Z,52.68
2024-02-29T06:58:22.593Z,52.73
2024-02-29T07:00:50.059Z,52.73
2024-02-29T07:03:17.339Z,52.60
2024-02-29T07:05:45.009Z,52.53
2024-02-29T07:08:12.163Z,52.49
2024-02-29T07:10:39.315Z,52.50
2024-02-29T07:13:07.904Z,52.52
2024-02-29T07:15:35.264Z,52.32
2024-02-29T07:18:02.692Z,52.39
2024-02-29T07:20:29.968Z,52.29
2024-02-29T07:22:57.621Z,52.33
2024-02-29T07:25:24.830Z,52.16
2024-02-29T07:27:52.090Z,52.26
2024-02-29T07:30:20.917Z,52.37
2024-02-29T07:32:48.271Z,52.17
2024-02-29T07:35:15.729Z,52.20
2024-02-29T07:37:42.900Z,52.20
2024-02-29T07:40:10.495Z,52.20
2024-02-29T07:42:38.280Z,52.46
2024-02-29T07:45:07.516Z,52.22
2024-02-29T07:47:36.256Z,52.17
2024-02-29T07:50:03.827Z,52.22
2024-02-29T07:52:30.987Z,52.42
2024-02-29T07:54:58.183Z,52.35
2024-02-29T07:57:25.371Z,52.34
2024-02-29T07:59:52.575Z,52.23
2024-02-29T08:02:21.186Z,52.40
2024-02-29T08:04:51.294Z,52.29
2024-02-29T08:07:18.642Z,52.19
2024-02-29T08:09:45.974Z,52.17
2024-02-29T08:12:13.217Z,52.41
2024-02-29T08:14:40.352Z,52.29
2024-02-29T08:17:07.478Z,52.26
2024-02-29T08:19:34.660Z,52.26
2024-02-29T08:22:03.518Z,52.18
2024-02-29T08:24:31.148Z,52.22
2024-02-29T08:26:58.347Z,52.04
2024-02-29T08:29:25.556Z,52.18
2024-02-29T08:31:52.755Z,52.07
2024-02-29T08:34:20.076Z,52.02
2024-02-29T08:36:47.260Z,52.08
2024-02-29T08:39:16.256Z,52.01
2024-02-29T08:41:43.463Z,51.98
2024-02-29T08:44:10.663Z,51.94
2024-02-29T08:46:37.811Z,52.05
2024-02-29T08:49:05.091Z,52.10
2024-02-29T08:51:32.271Z,52.17
2024-02-29T08:53:59.461Z,52.02
2024-02-29T08:56:28.279Z,52.16
2024-02-29T08:58:55.702Z,52.24
2024-02-29T09:01:22.957Z,52.23
2024-02-29T09:03:50.333Z,52.16
2024-02-29T09:06:17.496Z,52.02
2024-02-29T09:08:44.647Z,51.92
2024-02-29T09:11:11.912Z,51.83
2024-02-29T09:13:40.527Z,51.84
2024-02-29T09:16:07.909Z,51.88
2024-02-29T09:18:35.229Z,51.86
2024-02-29T09:21:02.414Z,52.04
2024-02-29T09:23:30.183Z,51.75
2024-02-29T09:25:57.391Z,51.78
2024-02-29T09:28:24.582Z,51.89
2024-02-29T09:30:53.243Z,52.01
2024-02-29T09:40:46.413Z,51.84
2024-02-29T09:43:20.123Z,51.98
2024-02-29T09:45:49.376Z,52.01
2024-02-29T09:48:18.094Z,52.03
2024-02-29T09:50:45.256Z,52.22
2024-02-29T09:53:16.102Z,52.01
2024-02-29T09:55:44.088Z,52.07
2024-02-29T09:58:11.893Z,52.20
2024-02-29T10:00:39.212Z,52.00
2024-02-29T10:03:07.719Z,51.95
2024-02-29T10:05:36.232Z,51.88
2024-02-29T10:08:06.754Z,51.95
2024-02-29T10:10:34.237Z,51.82
2024-02-29T10:13:01.536Z,51.84
2024-02-29T10:15:29.618Z,51.66
2024-02-29T10:20:23.857Z,51.85
2024-02-29T10:22:52.444Z,51.84
2024-02-29T10:25:20.771Z,51.80
2024-02-29T10:27:48.578Z,51.89
2024-02-29T10:30:17.336Z,51.70
2024-02-29T10:32:45.803Z,51.55
2024-02-29T10:35:19.868Z,51.66
2024-02-29T10:37:48.386Z,51.75
2024-02-29T10:40:17.131Z,51.45
2024-02-29T10:42:44.500Z,51.77
2024-02-29T10:45:13.696Z,51.82
2024-02-29T10:47:46.665Z,51.80
2024-02-29T10:50:18.751Z,51.81
2024-02-29T10:52:49.665Z,51.78
2024-02-29T10:55:23.873Z,51.88
2024-02-29T10:57:54.458Z,51.82
2024-02-29T11:00:21.692Z,51.69
2024-02-29T11:02:49.423Z,51.76
2024-02-29T11:05:17.797Z,51.70
2024-02-29T11:07:45.641Z,51.62
2024-02-29T11:10:13.553Z,51.59
2024-02-29T11:12:42.156Z,51.58
2024-02-29T11:15:11.678Z,51.41
2024-02-29T11:17:39.339Z,51.35
2024-02-29T11:20:07.140Z,51.54
2024-02-29T11:22:35.915Z,51.49
2024-02-29T11:25:06.800Z,51.54
2024-02-29T11:27:34.908Z,51.45
2024-02-29T11:30:04.904Z,51.46
2024-02-29T11:32:32.213Z,51.57
2024-02-29T11:34:59.498Z,51.50
2024-02-29T11:37:32.464Z,51.31
2024-02-29T11:40:02.058Z,51.53
2024-02-29T11:42:29.345Z,51.60
2024-02-29T11:44:56.584Z,51.59
2024-02-29T11:47:25.157Z,51.68
2024-02-29T11:49:52.354Z,51.56
2024-02-29T11:52:19.800Z,51.53
2024-02-29T11:54:47.383Z,51.60
2024-02-29T11:57:14.631Z,51.58
2024-02-29T11:59:41.804Z,51.48
2024-02-29T12:02:09.527Z,51.44
2024-02-29T12:04:38.079Z,51.41
2024-02-29T12:07:07.166Z,51.37
2024-02-29T12:09:34.580Z,51.38
2024-02-29T12:12:02.094Z,51.33
2024-02-29T12:14:29.595Z,51.39
2024-02-29T12:16:56.915Z,51.32
2024-02-29T12:19:24.178Z,51.27
2024-02-29T12:21:55.581Z,51.13
2024-02-29T12:24:23.183Z,51.34
2024-02-29T12:26:50.753Z,51.24
2024-02-29T12:29:18.022Z,51.20
2024-02-29T12:31:45.664Z,51.23
2024-02-29T12:34:12.903Z,51.14
2024-02-29T12:36:40.217Z,51.29
2024-02-29T12:39:08.800Z,51.45
2024-02-29T12:41:38.189Z,51.50
2024-02-29T12:44:05.664Z,51.28
2024-02-29T12:46:32.940Z,51.35
2024-02-29T12:49:00.138Z,51.44
2024-02-29T12:51:27.291Z,51.40
2024-02-29T12:53:54.522Z,51.39
2024-02-29T12:56:23.349Z,51.35
2024-02-29T12:58:50.515Z,51.30
2024-02-29T13:01:17.938Z,51.16
2024-02-29T13:03:46.791Z,51.20
2024-02-29T13:06:14.067Z,51.20
2024-02-29T13:08:41.284Z,51.25
2024-02-29T13:11:08.491Z,51.16
2024-02-29T13:13:37.040Z,51.12
2024-02-29T13:16:05.033Z,51.18
2024-02-29T13:18:32.367Z,51.03
2024-02-29T13:21:01.311Z,51.15
2024-02-29T13:23:29.641Z,51.15
2024-02-29T13:25:57.017Z,51.09
2024-02-29T13:28:24.482Z,51.11
2024-02-29T13:30:53.098Z,51.12
2024-02-29T13:33:20.342Z,51.02
2024-02-29T13:35:47.622Z,51.22
2024-02-29T13:38:14.913Z,51.23
2024-02-29T13:40:42.080Z,51.25
2024-02-29T13:43:09.342Z,51.27
2024-02-29T13:45:37.722Z,51.20
2024-02-29T13:48:07.126Z,51.22
2024-02-29T13:50:34.373Z,51.26
2024-02-29T13:53:01.584Z,51.13
2024-02-29T13:55:28.840Z,51.14
2024-02-29T13:57:56.382Z,50.97
2024-02-29T14:00:23.630Z,51.00
2024-02-29T14:02:50.925Z,51.01
2024-02-29T14:05:19.465Z,51.03
2024-02-29T14:07:48.983Z,50.98
2024-02-29T14:10:16.823Z,51.05
2024-02-29T14:12:44.156Z,50.96
2024-02-29T14:15:11.392Z,50.89
2024-02-29T14:17:39.559Z,50.76
2024-02-29T14:20:07.824Z,50.90
2024-02-29T14:22:36.419Z,50.96
2024-02-29T14:25:04.169Z,50.87
2024-02-29T14:27:31.570Z,50.87
2024-02-29T14:29:58.762Z,50.89
2024-02-29T14:32:25.957Z,50.99
2024-02-29T14:34:53.148Z,51.05
2024-02-29T14:37:20.601Z,50.99
2024-02-29T14:39:49.286Z,51.04
2024-02-29T14:42:16.525Z,51.19
2024-02-29T14:44:43.725Z,51.03
2024-02-29T14:47:10.933Z,50.97
2024-02-29T14:49:38.182Z,50.96
2024-02-29T14:52:05.409Z,50.89
2024-02-29T14:54:32.684Z,50.87
2024-02-29T14:57:01.711Z,50.80
2024-02-29T14:59:28.963Z,50.83
2024-02-29T15:01:56.330Z,50.78
2024-02-29T15:04:23.628Z,50.83
2024-02-29T15:06:51.025Z,50.59
2024-02-29T15:09:18.356Z,50.57
2024-02-29T15:11:45.657Z,50.54
2024-02-29T15:14:14.330Z,50.54
2024-02-29T15:16:41.565Z,50.49
2024-02-29T15:19:08.835Z,50.60
2024-02-29T15:21:36.109Z,50.52
2024-02-29T15:24:03.453Z,50.74
2024-02-29T15:26:30.645Z,50.71
2024-02-29T15:28:57.819Z,50.43
2024-02-29T15:31:26.509Z,50.60
2024-02-29T15:33:53.685Z,50.64
2024-02-29T15:36:20.998Z,50.55
2024-02-29T15:38:48.201Z,50.69
2024-02-29T15:41:15.500Z,50.54
2024-02-29T15:43:42.712Z,50.58
2024-02-29T15:46:10.040Z,50.62
2024-02-29T15:48:38.629Z,50.57
2024-02-29T15:51:06.020Z,50.46
2024-02-29T15:53:33.527Z,50.45
2024-02-29T15:56:02.660Z,50.45
2024-02-29T15:58:32.238Z,50.38
2024-02-29T16:00:59.508Z,50.60
2024-02-29T16:03:26.714Z,50.50
2024-02-29T16:05:55.289Z,50.42
2024-02-29T16:08:22.477Z,50.48
2024-02-29T16:10:49.709Z,50.52
2024-02-29T16:13:17.445Z,50.50
2024-02-29T16:15:44.820Z,50.29
2024-02-29T16:18:12.082Z,49.70
2024-02-29T16:20:39.277Z,49.06
2024-02-29T16:23:07.792Z,48.34
2024-02-29T16:25:35.161Z,47.74
2024-02-29T16:28:02.844Z,47.45
2024-02-29T16:30:30.033Z,47.69
2024-02-29T16:32:57.501Z,47.70
2024-02-29T16:35:25.066Z,47.79
2024-02-29T16:37:52.390Z,48.04
2024-02-29T16:40:20.996Z,48.10
2024-02-29T16:42:48.297Z,47.94
2024-02-29T16:45:15.599Z,48.31
2024-02-29T16:47:43.402Z,48.29
2024-02-29T16:50:10.826Z,48.54
2024-02-29T16:52:38.044Z,48.45
2024-02-29T16:55:05.729Z,48.76
2024-02-29T16:57:34.594Z,48.78
2024-02-29T17:00:01.814Z,48.80
2024-02-29T17:02:28.988Z,49.04
2024-02-29T17:04:56.250Z,49.07
2024-02-29T17:07:23.575Z,49.21
2024-02-29T17:09:50.946Z,49.33
2024-02-29T17:12:18.237Z,49.34
2024-02-29T17:14:46.798Z,49.52
2024-02-29T17:17:14.109Z,49.50
2024-02-29T17:19:41.349Z,49.76
2024-02-29T17:22:08.592Z,49.77
2024-02-29T17:24:35.851Z,49.79
2024-02-29T17:27:03.145Z,49.91
2024-02-29T17:29:30.383Z,50.12
2024-02-29T17:31:58.957Z,50.16
2024-02-29T17:34:26.240Z,50.33
2024-02-29T17:36:53.526Z,50.20
2024-02-29T17:39:20.738Z,50.23
2024-02-29T17:41:47.958Z,50.31
2024-02-29T17:44:15.149Z,50.35
2024-02-29T17:46:43.257Z,50.37
2024-02-29T17:49:11.974Z,50.33
2024-02-29T17:51:44.085Z,50.11
2024-02-29T17:54:11.346Z,50.22
2024-02-29T17:56:38.790Z,50.27
2024-02-29T17:59:05.983Z,50.40
2024-02-29T18:01:33.275Z,50.64
2024-02-29T18:04:00.544Z,50.82
2024-02-29T18:06:29.100Z,50.85
2024-02-29T18:08:56.293Z,51.14
2024-02-29T18:11:23.523Z,51.62
2024-02-29T18:13:50.843Z,51.48
2024-02-29T18:16:18.048Z,51.45
2024-02-29T18:18:45.349Z,51.13
2024-02-29T18:21:12.558Z,51.11
2024-02-29T18:23:41.122Z,51.25
2024-02-29T18:26:08.549Z,51.34
2024-02-29T18:28:35.761Z,51.45
2024-02-29T18:31:03.006Z,51.44
2024-02-29T18:33:30.272Z,51.35
2024-02-29T18:35:57.593Z,51.31
2024-02-29T18:38:24.764Z,51.48
2024-02-29T18:40:53.335Z,51.35
2024-02-29T18:43:20.634Z,51.21
2024-02-29T18:45:57.055Z,51.18
2024-02-29T18:48:30.113Z,51.23
2024-02-29T18:50:57.263Z,51.05
2024-02-29T18:53:24.441Z,50.99
2024-02-29T18:55:52.993Z,51.00
2024-02-29T18:58:20.241Z,51.20
2024-02-29T19:00:47.570Z,50.99
2024-02-29T19:03:14.832Z,51.03
2024-02-29T19:05:42.051Z,51.24
2024-02-29T19:08:09.230Z,50.96
2024-02-29T19:10:36.459Z,51.04
2024-02-29T19:13:05.149Z,51.10
2024-02-29T19:15:32.378Z,50.95
2024-02-29T19:17:59.697Z,51.04
2024-02-29T19:20:26.917Z,51.15
2024-02-29T19:22:54.119Z,51.34
2024-02-29T19:25:21.357Z,51.30
2024-02-29T19:27:48.615Z,51.14
2024-02-29T19:30:19.424Z,51.22
2024-02-29T19:32:47.330Z,51.15
2024-02-29T19:35:14.737Z,51.16
2024-02-29T19:37:41.939Z,51.20
2024-02-29T19:40:09.837Z,50.95
2024-02-29T19:42:37.047Z,50.92
2024-02-29T19:45:05.090Z,50.86
2024-02-29T19:47:33.753Z,50.97
2024-02-29T19:50:00.961Z,50.94
2024-02-29T19:52:28.121Z,50.84
2024-02-29T19:54:55.354Z,50.90
2024-02-29T19:57:22.625Z,50.85
2024-02-29T19:59:49.835Z,51.01
2024-02-29T20:02:17.023Z,50.90
2024-02-29T20:04:45.680Z,50.78
2024-02-29T20:09:40.085Z,50.97
2024-02-29T20:12:07.778Z,50.83
2024-02-29T20:14:34.964Z,50.86
2024-02-29T20:17:02.196Z,50.96
2024-02-29T20:19:30.928Z,50.96
2024-02-29T20:21:59.769Z,50.98
2024-02-29T20:24:26.985Z,50.99
2024-02-29T20:26:54.193Z,51.00
2024-02-29T20:29:21.411Z,51.08
2024-02-29T20:31:48.921Z,50.98
2024-02-29T20:34:16.177Z,50.97
2024-02-29T20:36:43.471Z,50.84
2024-02-29T20:39:12.065Z,50.81
2024-02-29T20:41:39.250Z,50.89
2024-02-29T20:44:06.443Z,50.65
2024-02-29T20:46:33.754Z,50.85
2024-02-29T20:49:01.031Z,50.76
2024-02-29T20:51:28.244Z,50.70
2024-02-29T20:53:55.458Z,50.59
2024-02-29T20:56:24.011Z,50.63
2024-02-29T20:58:51.224Z,50.75
2024-02-29T21:01:18.560Z,50.63
2024-02-29T21:03:45.815Z,50.70
2024-02-29T21:06:13.202Z,50.80
2024-02-29T21:08:40.612Z,50.65
2024-02-29T21:11:07.787Z,50.49
2024-02-29T21:13:36.389Z,50.59
2024-02-29T21:16:04.198Z,50.88
2024-02-29T21:18:31.534Z,50.85
2024-02-29T21:20:58.760Z,50.67
2024-02-29T21:23:26.039Z,50.75
2024-02-29T21:25:53.244Z,50.67
2024-02-29T21:28:20.613Z,50.74
2024-02-29T21:30:49.375Z,50.65
2024-02-29T21:33:16.911Z,50.71
2024-02-29T21:35:44.304Z,50.73
2024-02-29T21:38:11.495Z,50.71
2024-02-29T21:40:38.721Z,50.70
2024-02-29T21:43:05.985Z,50.42
2024-02-29T21:45:33.200Z,50.49
2024-02-29T21:48:01.778Z,50.59
2024-02-29T21:50:29.004Z,50.55
2024-02-29T21:52:56.250Z,50.46
2024-02-29T21:55:23.490Z,50.48
2024-02-29T21:57:50.701Z,50.65
2024-02-29T22:00:18.285Z,50.46
2024-02-29T22:02:45.439Z,50.41
2024-02-29T22:05:14.356Z,50.54
2024-02-29T22:07:41.746Z,50.46
2024-02-29T22:10:09.157Z,50.52
2024-02-29T22:12:37.645Z,50.49
2024-02-29T22:15:05.937Z,50.55
2024-02-29T22:17:33.137Z,50.66
2024-02-29T22:20:00.392Z,50.59
2024-02-29T22:22:29.160Z,50.71
2024-02-29T22:24:57.291Z,50.83
2024-02-29T22:27:24.541Z,50.60
2024-02-29T22:29:51.728Z,50.44
2024-02-29T22:32:18.892Z,50.49
2024-02-29T22:34:46.103Z,50.51
2024-02-29T22:37:14.903Z,50.39
2024-02-29T22:39:44.491Z,50.52
2024-02-29T22:42:11.670Z,50.41
2024-02-29T22:44:38.881Z,50.36
2024-02-29T22:47:06.361Z,50.30
2024-02-29T22:49:33.630Z,50.50
2024-02-29T22:52:00.884Z,50.31
2024-02-29T22:54:28.131Z,50.40
2024-02-29T22:56:56.708Z,50.34
2024-02-29T22:59:23.893Z,50.30
2024-02-29T23:01:51.161Z,50.29
2024-02-29T23:04:18.578Z,50.31
2024-02-29T23:06:46.391Z,50.43
2024-02-29T23:09:13.811Z,50.42
2024-02-29T23:11:41.329Z,50.52
2024-02-29T23:14:09.967Z,50.47
2024-02-29T23:16:37.199Z,50.48
2024-02-29T23:19:04.589Z,50.47
2024-02-29T23:21:31.934Z,50.55
2024-02-29T23:23:59.124Z,50.59
2024-02-29T23:26:26.305Z,50.60
2024-02-29T23:28:53.616Z,50.61
2024-02-29T23:31:22.191Z,50.47
2024-02-29T23:33:49.486Z,50.50
2024-02-29T23:36:16.851Z,50.55
2024-02-29T23:38:44.046Z,50.35
2024-02-29T23:41:11.277Z,50.49
2024-02-29T23:43:38.478Z,50.44
2024-02-29T23:46:05.746Z,50.40
2024-02-29T23:48:34.299Z,50.39
2024-02-29T23:51:01.501Z,50.52
2024-02-29T23:53:28.680Z,50.59
2024-02-29T23:55:55.858Z,50.54
2024-02-29T23:58:23.089Z,50.48
